sensor_id;sensor_type;location;lat;lon;timestamp;pressure;altitude;pressure_sealevel;temperature;humidity
11912;BME280;6016;41.928;25.556;2023-01-27T00:00:14;98376.66;;;4.15;91.23
11912;BME280;6016;41.928;25.556;2023-01-27T00:02:42;98321.22;;;3.89;91.53
11912;BME280;6016;41.928;25.556;2023-01-27T00:05:10;98351.63;;;4.24;91.71
11912;BME280;6016;41.928;25.556;2023-01-27T00:07:38;98343.06;;;4.11;91.89
11912;BME280;6016;41.928;25.556;2023-01-27T00:10:13;97707.97;;;-0.14;91.68
11912;BME280;6016;41.928;25.556;2023-01-27T00:12:41;98293.72;;;3.96;93.07
11912;BME280;6016;41.928;25.556;2023-01-27T00:15:26;98282.59;;;4.05;92.04
11912;BME280;6016;41.928;25.556;2023-01-27T00:17:53;98279.84;;;4.18;91.68
11912;BME280;6016;41.928;25.556;2023-01-27T00:20:20;98319.34;;;4.48;91.00
11912;BME280;6016;41.928;25.556;2023-01-27T00:23:14;98274.75;;;3.94;90.77
11912;BME280;6016;41.928;25.556;2023-01-27T00:25:59;98327.66;;;4.07;91.66
11912;BME280;6016;41.928;25.556;2023-01-27T00:28:30;98337.63;;;4.14;91.27
11912;BME280;6016;41.928;25.556;2023-01-27T00:30:58;98335.38;;;4.32;91.38
11912;BME280;6016;41.928;25.556;2023-01-27T00:33:25;98328.97;;;4.13;91.29
11912;BME280;6016;41.928;25.556;2023-01-27T00:35:58;98092.53;;;2.75;91.11
11912;BME280;6016;41.928;25.556;2023-01-27T00:38:27;98296.56;;;4.04;90.85
11912;BME280;6016;41.928;25.556;2023-01-27T00:40:55;98272.16;;;4.05;90.16
11912;BME280;6016;41.928;25.556;2023-01-27T00:43:41;98335.59;;;4.52;90.21
11912;BME280;6016;41.928;25.556;2023-01-27T00:46:08;98332.75;;;4.32;90.29
11912;BME280;6016;41.928;25.556;2023-01-27T00:48:35;98314.97;;;4.03;90.90
11912;BME280;6016;41.928;25.556;2023-01-27T00:51:02;98262.38;;;3.50;90.49
11912;BME280;6016;41.928;25.556;2023-01-27T00:53:30;98345.00;;;4.20;91.06
11912;BME280;6016;41.928;25.556;2023-01-27T00:55:57;98343.88;;;3.88;91.17
11912;BME280;6016;41.928;25.556;2023-01-27T00:58:24;98326.69;;;3.86;91.54
11912;BME280;6016;41.928;25.556;2023-01-27T01:00:52;98333.47;;;4.00;92.75
11912;BME280;6016;41.928;25.556;2023-01-27T01:03:19;98329.31;;;4.08;92.47
11912;BME280;6016;41.928;25.556;2023-01-27T01:05:46;98246.88;;;3.60;91.26
11912;BME280;6016;41.928;25.556;2023-01-27T01:08:13;98333.09;;;4.27;91.13
11912;BME280;6016;41.928;25.556;2023-01-27T01:10:41;98275.00;;;3.79;90.17
11912;BME280;6016;41.928;25.556;2023-01-27T01:13:08;98331.34;;;4.16;90.28
11912;BME280;6016;41.928;25.556;2023-01-27T01:15:36;98325.63;;;4.22;90.11
11912;BME280;6016;41.928;25.556;2023-01-27T01:18:05;98223.66;;;3.80;91.48
11912;BME280;6016;41.928;25.556;2023-01-27T01:20:35;98306.75;;;4.53;92.64
11912;BME280;6016;41.928;25.556;2023-01-27T01:23:03;98296.41;;;4.63;90.89
11912;BME280;6016;41.928;25.556;2023-01-27T01:25:30;98291.28;;;4.73;90.22
11912;BME280;6016;41.928;25.556;2023-01-27T01:27:58;98270.03;;;4.66;90.33
11912;BME280;6016;41.928;25.556;2023-01-27T01:30:25;98166.06;;;4.27;89.28
11912;BME280;6016;41.928;25.556;2023-01-27T01:32:52;98179.91;;;4.39;88.54
11912;BME280;6016;41.928;25.556;2023-01-27T01:35:19;98258.06;;;4.96;87.95
11912;BME280;6016;41.928;25.556;2023-01-27T01:37:46;98177.28;;;4.50;87.36
11912;BME280;6016;41.928;25.556;2023-01-27T01:40:13;98206.94;;;4.82;86.90
11912;BME280;6016;41.928;25.556;2023-01-27T01:43:00;98254.00;;;5.03;87.46
11912;BME280;6016;41.928;25.556;2023-01-27T01:45:48;98257.53;;;5.14;87.86
11912;BME280;6016;41.928;25.556;2023-01-27T01:48:20;98184.44;;;4.70;87.43
11912;BME280;6016;41.928;25.556;2023-01-27T01:50:52;98227.38;;;4.77;86.35
11912;BME280;6016;41.928;25.556;2023-01-27T01:53:22;98245.25;;;4.60;86.56
11912;BME280;6016;41.928;25.556;2023-01-27T01:55:54;98144.00;;;3.64;88.85
11912;BME280;6016;41.928;25.556;2023-01-27T01:58:25;98221.47;;;4.31;89.13
11912;BME280;6016;41.928;25.556;2023-01-27T02:00:53;98245.63;;;4.44;90.51
11912;BME280;6016;41.928;25.556;2023-01-27T02:03:21;98246.34;;;4.35;89.21
11912;BME280;6016;41.928;25.556;2023-01-27T02:05:50;98196.00;;;3.77;89.71
11912;BME280;6016;41.928;25.556;2023-01-27T02:08:21;98259.56;;;4.11;90.44
11912;BME280;6016;41.928;25.556;2023-01-27T02:10:50;98273.69;;;4.19;92.07
11912;BME280;6016;41.928;25.556;2023-01-27T02:13:19;98219.47;;;4.12;91.95
11912;BME280;6016;41.928;25.556;2023-01-27T02:15:48;98248.50;;;4.41;90.50
11912;BME280;6016;41.928;25.556;2023-01-27T02:18:17;98243.72;;;4.46;90.12
11912;BME280;6016;41.928;25.556;2023-01-27T02:20:45;98114.00;;;3.59;89.52
11912;BME280;6016;41.928;25.556;2023-01-27T02:23:23;98268.78;;;4.38;89.44
11912;BME280;6016;41.928;25.556;2023-01-27T02:25:57;98265.09;;;4.52;90.02
11912;BME280;6016;41.928;25.556;2023-01-27T02:28:26;98236.06;;;4.22;89.22
11912;BME280;6016;41.928;25.556;2023-01-27T02:30:54;98248.63;;;4.28;89.40
11912;BME280;6016;41.928;25.556;2023-01-27T02:33:20;98260.88;;;4.16;90.08
11912;BME280;6016;41.928;25.556;2023-01-27T02:35:51;98216.63;;;4.15;91.27
11912;BME280;6016;41.928;25.556;2023-01-27T02:38:23;98249.28;;;4.53;90.65
11912;BME280;6016;41.928;25.556;2023-01-27T02:40:54;98205.44;;;4.35;89.08
11912;BME280;6016;41.928;25.556;2023-01-27T02:43:22;98223.69;;;4.47;89.90
11912;BME280;6016;41.928;25.556;2023-01-27T02:45:49;98215.97;;;4.45;89.37
11912;BME280;6016;41.928;25.556;2023-01-27T02:48:16;98246.31;;;4.58;89.32
11912;BME280;6016;41.928;25.556;2023-01-27T02:50:43;98214.16;;;4.57;89.41
11912;BME280;6016;41.928;25.556;2023-01-27T02:53:09;98221.19;;;4.45;89.21
11912;BME280;6016;41.928;25.556;2023-01-27T02:55:36;98235.34;;;4.43;89.95
11912;BME280;6016;41.928;25.556;2023-01-27T02:58:04;98230.81;;;4.45;90.61
11912;BME280;6016;41.928;25.556;2023-01-27T03:00:31;98223.78;;;4.45;90.74
11912;BME280;6016;41.928;25.556;2023-01-27T03:02:58;98230.28;;;4.62;90.41
11912;BME280;6016;41.928;25.556;2023-01-27T03:05:25;98237.66;;;4.57;89.28
11912;BME280;6016;41.928;25.556;2023-01-27T03:07:52;98224.03;;;4.54;89.45
11912;BME280;6016;41.928;25.556;2023-01-27T03:10:19;98185.88;;;4.30;89.32
11912;BME280;6016;41.928;25.556;2023-01-27T03:12:46;98224.69;;;4.67;89.34
11912;BME280;6016;41.928;25.556;2023-01-27T03:15:14;98219.91;;;4.72;89.44
11912;BME280;6016;41.928;25.556;2023-01-27T03:18:03;98218.81;;;4.86;89.31
11912;BME280;6016;41.928;25.556;2023-01-27T03:20:38;98214.84;;;4.92;88.82
11912;BME280;6016;41.928;25.556;2023-01-27T03:23:05;98203.38;;;4.83;87.88
11912;BME280;6016;41.928;25.556;2023-01-27T03:25:32;98194.06;;;4.90;87.54
11912;BME280;6016;41.928;25.556;2023-01-27T03:27:59;98142.81;;;4.78;87.69
11912;BME280;6016;41.928;25.556;2023-01-27T03:30:28;98215.44;;;5.17;88.22
11912;BME280;6016;41.928;25.556;2023-01-27T03:32:55;98226.91;;;5.26;87.90
11912;BME280;6016;41.928;25.556;2023-01-27T03:35:22;98215.75;;;5.24;87.81
11912;BME280;6016;41.928;25.556;2023-01-27T03:37:58;98243.81;;;5.43;86.77
11912;BME280;6016;41.928;25.556;2023-01-27T03:40:42;98242.59;;;5.47;86.81
11912;BME280;6016;41.928;25.556;2023-01-27T03:43:27;98249.25;;;5.51;86.62
11912;BME280;6016;41.928;25.556;2023-01-27T03:46:13;98238.53;;;5.54;86.30
11912;BME280;6016;41.928;25.556;2023-01-27T03:48:46;98233.88;;;5.58;86.65
11912;BME280;6016;41.928;25.556;2023-01-27T03:51:14;98183.16;;;5.28;86.29
11912;BME280;6016;41.928;25.556;2023-01-27T03:53:41;98203.22;;;5.39;86.10
11912;BME280;6016;41.928;25.556;2023-01-27T03:56:07;98240.25;;;5.44;86.58
11912;BME280;6016;41.928;25.556;2023-01-27T03:58:36;98102.25;;;4.74;85.96
11912;BME280;6016;41.928;25.556;2023-01-27T04:01:04;98128.94;;;4.99;85.45
11912;BME280;6016;41.928;25.556;2023-01-27T04:03:34;98198.66;;;5.41;86.17
11912;BME280;6016;41.928;25.556;2023-01-27T04:06:20;98193.06;;;5.45;86.78
11912;BME280;6016;41.928;25.556;2023-01-27T04:09:06;98166.53;;;5.29;85.96
11912;BME280;6016;41.928;25.556;2023-01-27T04:11:33;98151.50;;;5.21;87.41
11912;BME280;6016;41.928;25.556;2023-01-27T04:14:17;98121.63;;;5.14;86.66
11912;BME280;6016;41.928;25.556;2023-01-27T04:16:45;98165.28;;;5.54;87.53
11912;BME280;6016;41.928;25.556;2023-01-27T04:19:13;98099.19;;;5.21;86.92
11912;BME280;6016;41.928;25.556;2023-01-27T04:21:40;98133.91;;;5.54;86.47
11912;BME280;6016;41.928;25.556;2023-01-27T04:24:09;98022.16;;;4.84;86.94
11912;BME280;6016;41.928;25.556;2023-01-27T04:26:43;97503.19;;;1.59;86.08
11912;BME280;6016;41.928;25.556;2023-01-27T04:29:11;98116.72;;;5.30;86.45
11912;BME280;6016;41.928;25.556;2023-01-27T04:31:38;98152.22;;;5.54;86.70
11912;BME280;6016;41.928;25.556;2023-01-27T04:34:05;98138.97;;;5.56;86.81
11912;BME280;6016;41.928;25.556;2023-01-27T04:36:34;98143.41;;;5.55;86.96
11912;BME280;6016;41.928;25.556;2023-01-27T04:39:01;98142.31;;;5.58;86.73
11912;BME280;6016;41.928;25.556;2023-01-27T04:41:28;98148.94;;;5.62;86.52
11912;BME280;6016;41.928;25.556;2023-01-27T04:43:55;98114.69;;;5.34;86.90
11912;BME280;6016;41.928;25.556;2023-01-27T04:46:21;98148.53;;;5.35;86.79
11912;BME280;6016;41.928;25.556;2023-01-27T04:48:48;98174.59;;;5.47;86.86
11912;BME280;6016;41.928;25.556;2023-01-27T04:51:15;98172.13;;;5.45;86.91
11912;BME280;6016;41.928;25.556;2023-01-27T04:53:43;98152.13;;;5.13;87.22
11912;BME280;6016;41.928;25.556;2023-01-27T04:56:29;98176.78;;;5.42;87.05
11912;BME280;6016;41.928;25.556;2023-01-27T04:58:57;98180.75;;;5.36;86.11
11912;BME280;6016;41.928;25.556;2023-01-27T05:01:25;98183.25;;;5.38;86.23
11912;BME280;6016;41.928;25.556;2023-01-27T05:03:52;98133.47;;;4.97;86.14
11912;BME280;6016;41.928;25.556;2023-01-27T05:06:19;98022.50;;;4.27;87.38
11912;BME280;6016;41.928;25.556;2023-01-27T05:08:48;98118.44;;;4.89;86.88
11912;BME280;6016;41.928;25.556;2023-01-27T05:11:15;98148.69;;;4.91;86.67
11912;BME280;6016;41.928;25.556;2023-01-27T05:13:42;98191.59;;;5.31;88.33
11912;BME280;6016;41.928;25.556;2023-01-27T05:16:11;98197.09;;;5.28;87.03
11912;BME280;6016;41.928;25.556;2023-01-27T05:18:39;98187.44;;;5.29;86.63
11912;BME280;6016;41.928;25.556;2023-01-27T05:21:07;98147.50;;;5.17;87.70
11912;BME280;6016;41.928;25.556;2023-01-27T05:23:34;98026.25;;;4.56;86.95
11912;BME280;6016;41.928;25.556;2023-01-27T05:26:05;98172.81;;;5.47;87.53
11912;BME280;6016;41.928;25.556;2023-01-27T05:28:32;98176.72;;;5.53;87.06
11912;BME280;6016;41.928;25.556;2023-01-27T05:31:01;98129.19;;;5.17;85.84
11912;BME280;6016;41.928;25.556;2023-01-27T05:33:28;98188.47;;;5.38;86.87
11912;BME280;6016;41.928;25.556;2023-01-27T05:35:57;98144.81;;;5.07;86.68
11912;BME280;6016;41.928;25.556;2023-01-27T05:38:24;98166.69;;;5.06;86.35
11912;BME280;6016;41.928;25.556;2023-01-27T05:40:54;98114.59;;;4.93;89.62
11912;BME280;6016;41.928;25.556;2023-01-27T05:43:23;98136.72;;;4.89;88.04
11912;BME280;6016;41.928;25.556;2023-01-27T05:45:50;98140.59;;;4.73;87.47
11912;BME280;6016;41.928;25.556;2023-01-27T05:48:17;98196.56;;;5.13;88.87
11912;BME280;6016;41.928;25.556;2023-01-27T05:50:53;98176.47;;;4.92;87.65
11912;BME280;6016;41.928;25.556;2023-01-27T05:53:20;98181.47;;;4.96;87.85
11912;BME280;6016;41.928;25.556;2023-01-27T05:55:47;98164.34;;;4.70;87.36
11912;BME280;6016;41.928;25.556;2023-01-27T05:58:14;98191.78;;;4.97;88.46
11912;BME280;6016;41.928;25.556;2023-01-27T06:00:42;98170.59;;;4.79;87.96
11912;BME280;6016;41.928;25.556;2023-01-27T06:03:09;98222.19;;;4.98;88.15
11912;BME280;6016;41.928;25.556;2023-01-27T06:05:36;98159.47;;;4.44;89.13
11912;BME280;6016;41.928;25.556;2023-01-27T06:08:03;98216.56;;;4.82;88.72
11912;BME280;6016;41.928;25.556;2023-01-27T06:10:30;98191.97;;;4.84;88.43
11912;BME280;6016;41.928;25.556;2023-01-27T06:13:02;98144.13;;;4.51;88.14
11912;BME280;6016;41.928;25.556;2023-01-27T06:15:28;98223.78;;;5.11;88.16
11912;BME280;6016;41.928;25.556;2023-01-27T06:17:57;98227.25;;;5.11;87.44
11912;BME280;6016;41.928;25.556;2023-01-27T06:20:23;98231.50;;;5.12;87.85
11912;BME280;6016;41.928;25.556;2023-01-27T06:22:50;98002.19;;;3.44;87.11
11912;BME280;6016;41.928;25.556;2023-01-27T06:25:17;98224.19;;;4.73;88.56
11912;BME280;6016;41.928;25.556;2023-01-27T06:27:44;98223.59;;;4.81;89.19
11912;BME280;6016;41.928;25.556;2023-01-27T06:30:11;98221.91;;;4.80;90.43
11912;BME280;6016;41.928;25.556;2023-01-27T06:32:38;98222.25;;;4.87;89.91
11912;BME280;6016;41.928;25.556;2023-01-27T06:35:07;98217.47;;;4.92;89.89
11912;BME280;6016;41.928;25.556;2023-01-27T06:37:34;98216.13;;;4.98;90.12
11912;BME280;6016;41.928;25.556;2023-01-27T06:40:01;98206.09;;;4.82;89.79
11912;BME280;6016;41.928;25.556;2023-01-27T06:42:28;98185.78;;;4.64;90.31
11912;BME280;6016;41.928;25.556;2023-01-27T06:44:55;98208.69;;;4.60;91.15
11912;BME280;6016;41.928;25.556;2023-01-27T06:47:22;98207.09;;;4.36;91.59
11912;BME280;6016;41.928;25.556;2023-01-27T06:49:48;98203.47;;;4.05;93.82
11912;BME280;6016;41.928;25.556;2023-01-27T06:52:17;98206.41;;;4.23;93.97
11912;BME280;6016;41.928;25.556;2023-01-27T06:54:43;98210.56;;;4.26;93.96
11912;BME280;6016;41.928;25.556;2023-01-27T06:57:10;98217.28;;;4.40;93.37
11912;BME280;6016;41.928;25.556;2023-01-27T06:59:37;98214.50;;;4.08;93.93
11912;BME280;6016;41.928;25.556;2023-01-27T07:02:05;98214.00;;;4.26;94.23
11912;BME280;6016;41.928;25.556;2023-01-27T07:04:31;98135.47;;;3.62;94.16
11912;BME280;6016;41.928;25.556;2023-01-27T07:06:59;98215.69;;;4.04;94.98
11912;BME280;6016;41.928;25.556;2023-01-27T07:09:27;98211.31;;;3.93;95.39
11912;BME280;6016;41.928;25.556;2023-01-27T07:11:53;98216.75;;;4.25;95.36
11912;BME280;6016;41.928;25.556;2023-01-27T07:14:20;98150.50;;;3.93;96.13
11912;BME280;6016;41.928;25.556;2023-01-27T07:16:47;98115.91;;;3.68;94.27
11912;BME280;6016;41.928;25.556;2023-01-27T07:19:14;98181.63;;;4.17;94.21
11912;BME280;6016;41.928;25.556;2023-01-27T07:21:41;98123.50;;;3.60;94.79
11912;BME280;6016;41.928;25.556;2023-01-27T07:24:08;98175.97;;;4.01;95.92
11912;BME280;6016;41.928;25.556;2023-01-27T07:26:36;98186.22;;;4.25;95.57
11912;BME280;6016;41.928;25.556;2023-01-27T07:29:03;98178.81;;;4.42;96.01
11912;BME280;6016;41.928;25.556;2023-01-27T07:31:32;98197.63;;;4.68;94.89
11912;BME280;6016;41.928;25.556;2023-01-27T07:33:58;98000.28;;;3.46;94.14
11912;BME280;6016;41.928;25.556;2023-01-27T07:36:25;98190.69;;;4.78;93.84
11912;BME280;6016;41.928;25.556;2023-01-27T07:38:52;98190.06;;;4.86;94.43
11912;BME280;6016;41.928;25.556;2023-01-27T07:41:19;98197.84;;;4.98;94.62
11912;BME280;6016;41.928;25.556;2023-01-27T07:43:49;98149.28;;;4.74;94.35
11912;BME280;6016;41.928;25.556;2023-01-27T07:46:15;98187.50;;;5.17;94.73
11912;BME280;6016;41.928;25.556;2023-01-27T07:48:42;98182.75;;;5.23;93.48
11912;BME280;6016;41.928;25.556;2023-01-27T07:51:11;98131.41;;;4.79;93.42
11912;BME280;6016;41.928;25.556;2023-01-27T07:53:38;98141.25;;;5.08;93.72
11912;BME280;6016;41.928;25.556;2023-01-27T07:56:05;98166.91;;;5.45;93.74
11912;BME280;6016;41.928;25.556;2023-01-27T07:58:36;98158.34;;;5.43;93.14
11912;BME280;6016;41.928;25.556;2023-01-27T08:01:05;98126.69;;;5.15;92.88
11912;BME280;6016;41.928;25.556;2023-01-27T08:03:32;98088.41;;;5.04;94.03
11912;BME280;6016;41.928;25.556;2023-01-27T08:06:03;98083.75;;;5.08;92.66
11912;BME280;6016;41.928;25.556;2023-01-27T08:08:33;98155.81;;;5.32;92.60
11912;BME280;6016;41.928;25.556;2023-01-27T08:11:01;98126.31;;;5.20;92.68
11912;BME280;6016;41.928;25.556;2023-01-27T08:13:29;98123.91;;;5.07;92.57
11912;BME280;6016;41.928;25.556;2023-01-27T08:15:57;97966.25;;;4.13;92.45
11912;BME280;6016;41.928;25.556;2023-01-27T08:18:26;98158.75;;;5.39;93.90
11912;BME280;6016;41.928;25.556;2023-01-27T08:20:57;98158.13;;;5.25;93.37
11912;BME280;6016;41.928;25.556;2023-01-27T08:23:25;98119.13;;;5.12;93.93
11912;BME280;6016;41.928;25.556;2023-01-27T08:25:52;98165.31;;;5.33;92.56
11912;BME280;6016;41.928;25.556;2023-01-27T08:28:20;98169.94;;;5.19;93.01
11912;BME280;6016;41.928;25.556;2023-01-27T08:30:48;98172.66;;;5.18;92.54
11912;BME280;6016;41.928;25.556;2023-01-27T08:33:16;98148.69;;;4.91;92.72
11912;BME280;6016;41.928;25.556;2023-01-27T08:35:45;98170.81;;;4.87;93.70
11912;BME280;6016;41.928;25.556;2023-01-27T08:38:13;98165.84;;;5.05;93.89
11912;BME280;6016;41.928;25.556;2023-01-27T08:40:41;98157.75;;;4.87;93.81
11912;BME280;6016;41.928;25.556;2023-01-27T08:43:09;98134.56;;;4.94;94.32
11912;BME280;6016;41.928;25.556;2023-01-27T08:45:36;98163.66;;;5.11;93.84
11912;BME280;6016;41.928;25.556;2023-01-27T08:48:04;98168.41;;;5.17;94.35
11912;BME280;6016;41.928;25.556;2023-01-27T08:50:31;97447.19;;;0.55;92.50
11912;BME280;6016;41.928;25.556;2023-01-27T08:52:59;98153.69;;;4.95;94.48
11912;BME280;6016;41.928;25.556;2023-01-27T08:55:30;98150.50;;;4.91;94.24
11912;BME280;6016;41.928;25.556;2023-01-27T08:57:58;98152.34;;;5.00;94.26
11912;BME280;6016;41.928;25.556;2023-01-27T09:00:26;98148.19;;;5.19;94.44
11912;BME280;6016;41.928;25.556;2023-01-27T09:02:53;98124.94;;;4.95;94.15
11912;BME280;6016;41.928;25.556;2023-01-27T09:05:23;98125.81;;;5.05;94.18
11912;BME280;6016;41.928;25.556;2023-01-27T09:07:50;98143.31;;;5.35;94.38
11912;BME280;6016;41.928;25.556;2023-01-27T09:10:18;98149.84;;;5.20;93.49
11912;BME280;6016;41.928;25.556;2023-01-27T09:12:45;98134.06;;;5.00;94.18
11912;BME280;6016;41.928;25.556;2023-01-27T09:15:13;98111.34;;;5.01;94.45
11912;BME280;6016;41.928;25.556;2023-01-27T09:17:40;97925.50;;;4.01;94.71
11912;BME280;6016;41.928;25.556;2023-01-27T09:20:08;98154.81;;;5.54;94.56
11912;BME280;6016;41.928;25.556;2023-01-27T09:22:37;98110.03;;;5.38;93.31
11912;BME280;6016;41.928;25.556;2023-01-27T09:25:05;98085.34;;;5.30;92.10
11912;BME280;6016;41.928;25.556;2023-01-27T09:27:33;98144.84;;;5.69;91.81
11912;BME280;6016;41.928;25.556;2023-01-27T09:30:00;98147.34;;;5.40;92.49
11912;BME280;6016;41.928;25.556;2023-01-27T09:32:27;98105.53;;;4.97;94.76
11912;BME280;6016;41.928;25.556;2023-01-27T09:34:57;98140.44;;;5.39;93.97
11912;BME280;6016;41.928;25.556;2023-01-27T09:37:23;98134.91;;;5.32;94.44
11912;BME280;6016;41.928;25.556;2023-01-27T09:39:55;98122.22;;;5.27;93.37
11912;BME280;6016;41.928;25.556;2023-01-27T09:42:45;98144.41;;;5.12;93.56
11912;BME280;6016;41.928;25.556;2023-01-27T09:45:27;98141.88;;;5.21;93.83
11912;BME280;6016;41.928;25.556;2023-01-27T09:48:11;98115.03;;;5.19;94.82
11912;BME280;6016;41.928;25.556;2023-01-27T09:50:46;98143.75;;;5.41;94.62
11912;BME280;6016;41.928;25.556;2023-01-27T09:53:37;98144.91;;;5.27;93.72
11912;BME280;6016;41.928;25.556;2023-01-27T09:56:09;98034.22;;;4.75;94.45
11912;BME280;6016;41.928;25.556;2023-01-27T09:58:53;98125.38;;;5.52;94.24
11912;BME280;6016;41.928;25.556;2023-01-27T10:01:30;98107.75;;;5.54;93.05
11912;BME280;6016;41.928;25.556;2023-01-27T10:04:20;98122.09;;;5.70;93.77
11912;BME280;6016;41.928;25.556;2023-01-27T10:07:16;98112.63;;;5.78;92.56
11912;BME280;6016;41.928;25.556;2023-01-27T10:10:05;98119.50;;;5.80;92.65
11912;BME280;6016;41.928;25.556;2023-01-27T10:12:48;98048.28;;;5.15;92.76
11912;BME280;6016;41.928;25.556;2023-01-27T10:15:32;98009.16;;;5.04;92.65
11912;BME280;6016;41.928;25.556;2023-01-27T10:18:13;98067.91;;;5.41;92.77
11912;BME280;6016;41.928;25.556;2023-01-27T10:20:46;98103.09;;;5.68;92.45
11912;BME280;6016;41.928;25.556;2023-01-27T10:23:30;98103.09;;;5.58;91.91
11912;BME280;6016;41.928;25.556;2023-01-27T10:26:11;98099.91;;;5.54;92.24
11912;BME280;6016;41.928;25.556;2023-01-27T10:28:45;98087.09;;;5.51;92.42
11912;BME280;6016;41.928;25.556;2023-01-27T10:31:22;98017.06;;;5.14;92.50
11912;BME280;6016;41.928;25.556;2023-01-27T10:33:52;98073.78;;;5.74;92.65
11912;BME280;6016;41.928;25.556;2023-01-27T10:36:28;98073.94;;;5.82;93.00
11912;BME280;6016;41.928;25.556;2023-01-27T10:39:04;98063.34;;;5.94;92.64
11912;BME280;6016;41.928;25.556;2023-01-27T10:41:44;98060.63;;;5.95;92.77
11912;BME280;6016;41.928;25.556;2023-01-27T10:44:33;98060.19;;;6.00;92.98
11912;BME280;6016;41.928;25.556;2023-01-27T10:47:10;98056.78;;;6.09;92.22
11912;BME280;6016;41.928;25.556;2023-01-27T10:49:45;97961.28;;;5.44;92.08
11912;BME280;6016;41.928;25.556;2023-01-27T10:52:19;98049.56;;;5.82;93.30
11912;BME280;6016;41.928;25.556;2023-01-27T10:54:51;98048.34;;;5.96;92.89
11912;BME280;6016;41.928;25.556;2023-01-27T10:57:25;98039.81;;;5.94;93.16
11912;BME280;6016;41.928;25.556;2023-01-27T11:00:02;98030.97;;;5.95;93.53
11912;BME280;6016;41.928;25.556;2023-01-27T11:02:35;98050.31;;;6.23;92.93
11912;BME280;6016;41.928;25.556;2023-01-27T11:05:07;98038.72;;;6.16;93.03
11912;BME280;6016;41.928;25.556;2023-01-27T11:07:44;98043.69;;;6.39;93.80
11912;BME280;6016;41.928;25.556;2023-01-27T11:10:16;98036.22;;;6.54;93.35
11912;BME280;6016;41.928;25.556;2023-01-27T11:12:46;97978.25;;;6.09;92.48
11912;BME280;6016;41.928;25.556;2023-01-27T11:15:17;98032.53;;;6.27;92.38
11912;BME280;6016;41.928;25.556;2023-01-27T11:17:51;97690.91;;;4.19;93.05
11912;BME280;6016;41.928;25.556;2023-01-27T11:20:27;97494.13;;;3.12;92.39
11912;BME280;6016;41.928;25.556;2023-01-27T11:22:58;98027.81;;;6.30;92.76
11912;BME280;6016;41.928;25.556;2023-01-27T11:25:35;98018.72;;;6.25;93.50
11912;BME280;6016;41.928;25.556;2023-01-27T11:28:19;98026.19;;;6.29;94.86
11912;BME280;6016;41.928;25.556;2023-01-27T11:30:56;98018.34;;;6.39;93.03
11912;BME280;6016;41.928;25.556;2023-01-27T11:33:36;98018.34;;;6.19;95.00
11912;BME280;6016;41.928;25.556;2023-01-27T11:36:09;98026.19;;;6.29;94.02
11912;BME280;6016;41.928;25.556;2023-01-27T11:38:36;98016.22;;;6.43;94.68
11912;BME280;6016;41.928;25.556;2023-01-27T11:41:03;98016.09;;;6.54;93.88
11912;BME280;6016;41.928;25.556;2023-01-27T11:43:30;97965.66;;;6.42;94.11
11912;BME280;6016;41.928;25.556;2023-01-27T11:46:00;98021.84;;;6.78;92.75
11912;BME280;6016;41.928;25.556;2023-01-27T11:48:35;98001.28;;;6.73;92.80
11912;BME280;6016;41.928;25.556;2023-01-27T11:51:12;98015.63;;;6.79;92.71
11912;BME280;6016;41.928;25.556;2023-01-27T11:53:41;98008.47;;;6.61;93.20
11912;BME280;6016;41.928;25.556;2023-01-27T11:56:14;98014.91;;;6.86;93.63
11912;BME280;6016;41.928;25.556;2023-01-27T11:58:44;97959.13;;;6.56;93.31
11912;BME280;6016;41.928;25.556;2023-01-27T12:01:16;97993.47;;;7.01;93.66
11912;BME280;6016;41.928;25.556;2023-01-27T12:03:50;97992.97;;;7.15;93.75
11912;BME280;6016;41.928;25.556;2023-01-27T12:06:28;97953.00;;;6.75;91.98
11912;BME280;6016;41.928;25.556;2023-01-27T12:08:56;97995.50;;;7.07;91.77
11912;BME280;6016;41.928;25.556;2023-01-27T12:11:25;97979.81;;;6.97;90.56
11912;BME280;6016;41.928;25.556;2023-01-27T12:13:54;97943.47;;;6.84;90.41
11912;BME280;6016;41.928;25.556;2023-01-27T12:16:25;97917.19;;;6.66;90.62
11912;BME280;6016;41.928;25.556;2023-01-27T12:18:59;97908.94;;;6.61;90.82
11912;BME280;6016;41.928;25.556;2023-01-27T12:21:38;97930.50;;;6.83;90.72
11912;BME280;6016;41.928;25.556;2023-01-27T12:24:17;97970.50;;;7.13;91.06
11912;BME280;6016;41.928;25.556;2023-01-27T12:26:46;97973.34;;;6.92;90.15
11912;BME280;6016;41.928;25.556;2023-01-27T12:29:17;97979.13;;;6.95;90.10
11912;BME280;6016;41.928;25.556;2023-01-27T12:31:48;97982.13;;;7.00;89.91
11912;BME280;6016;41.928;25.556;2023-01-27T12:34:23;97976.47;;;7.05;89.99
11912;BME280;6016;41.928;25.556;2023-01-27T12:36:52;97982.63;;;7.14;90.32
11912;BME280;6016;41.928;25.556;2023-01-27T12:39:41;97974.13;;;7.02;89.38
11912;BME280;6016;41.928;25.556;2023-01-27T12:42:33;97964.13;;;7.15;90.27
11912;BME280;6016;41.928;25.556;2023-01-27T12:45:17;97966.75;;;7.15;90.16
11912;BME280;6016;41.928;25.556;2023-01-27T12:47:54;97980.66;;;7.26;89.70
11912;BME280;6016;41.928;25.556;2023-01-27T12:50:24;97978.59;;;7.20;89.32
11912;BME280;6016;41.928;25.556;2023-01-27T12:55:35;97945.44;;;7.00;89.21
11912;BME280;6016;41.928;25.556;2023-01-27T12:58:04;97964.88;;;7.08;89.51
11912;BME280;6016;41.928;25.556;2023-01-27T13:00:33;97965.94;;;7.15;89.07
11912;BME280;6016;41.928;25.556;2023-01-27T13:03:04;97920.25;;;6.61;88.10
11912;BME280;6016;41.928;25.556;2023-01-27T13:05:41;97983.28;;;6.98;89.25
11912;BME280;6016;41.928;25.556;2023-01-27T13:08:14;97942.97;;;6.71;90.45
11912;BME280;6016;41.928;25.556;2023-01-27T13:10:49;97974.75;;;6.86;90.08
11912;BME280;6016;41.928;25.556;2023-01-27T13:13:18;97998.59;;;6.93;89.90
11912;BME280;6016;41.928;25.556;2023-01-27T13:15:51;97990.94;;;6.71;89.37
11912;BME280;6016;41.928;25.556;2023-01-27T13:18:20;98009.66;;;6.86;88.82
11912;BME280;6016;41.928;25.556;2023-01-27T13:20:52;97999.72;;;6.90;90.21
11912;BME280;6016;41.928;25.556;2023-01-27T13:23:22;98003.28;;;6.99;89.74
11912;BME280;6016;41.928;25.556;2023-01-27T13:25:53;98000.31;;;7.12;89.54
11912;BME280;6016;41.928;25.556;2023-01-27T13:28:26;97881.41;;;6.47;90.10
11912;BME280;6016;41.928;25.556;2023-01-27T13:30:58;97999.00;;;7.26;89.64